sensor_id;sensor_type;location;lat;lon;timestamp;P1;durP1;ratioP1;P2;durP2;ratioP2
1799;SDS011;919;48.274;12.292;2023-06-26T00:02:15;11.23;;;6.10;;
1799;SDS011;919;48.274;12.292;2023-06-26T00:04:42;7.17;;;5.90;;
1799;SDS011;919;48.274;12.292;2023-06-26T00:07:09;7.97;;;5.23;;
1799;SDS011;919;48.274;12.292;2023-06-26T00:09:38;6.47;;;5.40;;
1799;SDS011;919;48.274;12.292;2023-06-26T00:12:05;8.40;;;6.80;;
1799;SDS011;919;48.274;12.292;2023-06-26T00:14:32;7.43;;;6.27;;
1799;SDS011;919;48.274;12.292;2023-06-26T00:16:58;5.63;;;5.03;;
1799;SDS011;919;48.274;12.292;2023-06-26T00:19:25;7.03;;;5.63;;
1799;SDS011;919;48.274;12.292;2023-06-26T00:21:52;12.30;;;6.70;;
1799;SDS011;919;48.274;12.292;2023-06-26T00:24:19;6.87;;;6.20;;
1799;SDS011;919;48.274;12.292;2023-06-26T00:26:47;10.30;;;5.57;;
1799;SDS011;919;48.274;12.292;2023-06-26T00:29:14;8.50;;;6.13;;
1799;SDS011;919;48.274;12.292;2023-06-26T00:31:41;8.33;;;5.03;;
1799;SDS011;919;48.274;12.292;2023-06-26T00:34:08;7.20;;;5.43;;
1799;SDS011;919;48.274;12.292;2023-06-26T00:36:34;6.57;;;5.70;;
1799;SDS011;919;48.274;12.292;2023-06-26T00:39:01;6.30;;;5.43;;
1799;SDS011;919;48.274;12.292;2023-06-26T00:41:29;7.57;;;5.73;;
1799;SDS011;919;48.274;12.292;2023-06-26T00:43:57;7.33;;;6.20;;
1799;SDS011;919;48.274;12.292;2023-06-26T00:46:24;7.30;;;6.07;;
1799;SDS011;919;48.274;12.292;2023-06-26T00:48:51;6.73;;;5.80;;
1799;SDS011;919;48.274;12.292;2023-06-26T00:51:23;9.00;;;6.77;;
1799;SDS011;919;48.274;12.292;2023-06-26T00:53:49;7.10;;;6.40;;
1799;SDS011;919;48.274;12.292;2023-06-26T00:56:17;6.27;;;5.67;;
1799;SDS011;919;48.274;12.292;2023-06-26T00:58:44;8.17;;;5.73;;
1799;SDS011;919;48.274;12.292;2023-06-26T01:01:13;6.90;;;6.10;;
1799;SDS011;919;48.274;12.292;2023-06-26T01:03:42;8.10;;;6.20;;
1799;SDS011;919;48.274;12.292;2023-06-26T01:06:10;7.40;;;5.83;;
1799;SDS011;919;48.274;12.292;2023-06-26T01:08:40;11.33;;;5.53;;
1799;SDS011;919;48.274;12.292;2023-06-26T01:11:08;6.70;;;5.53;;
1799;SDS011;919;48.274;12.292;2023-06-26T01:13:35;7.47;;;5.87;;
1799;SDS011;919;48.274;12.292;2023-06-26T01:16:02;9.67;;;6.40;;
1799;SDS011;919;48.274;12.292;2023-06-26T01:18:32;7.60;;;6.47;;
1799;SDS011;919;48.274;12.292;2023-06-26T01:21:00;11.03;;;5.50;;
1799;SDS011;919;48.274;12.292;2023-06-26T01:23:29;6.80;;;5.80;;
1799;SDS011;919;48.274;12.292;2023-06-26T01:26:12;8.53;;;6.10;;
1799;SDS011;919;48.274;12.292;2023-06-26T01:28:42;6.60;;;5.73;;
1799;SDS011;919;48.274;12.292;2023-06-26T01:31:10;6.20;;;5.67;;
1799;SDS011;919;48.274;12.292;2023-06-26T01:33:38;10.30;;;5.80;;
1799;SDS011;919;48.274;12.292;2023-06-26T01:36:06;8.03;;;6.10;;
1799;SDS011;919;48.274;12.292;2023-06-26T01:38:33;10.57;;;7.87;;
1799;SDS011;919;48.274;12.292;2023-06-26T01:41:00;6.20;;;5.43;;
1799;SDS011;919;48.274;12.292;2023-06-26T01:43:31;6.07;;;5.03;;
1799;SDS011;919;48.274;12.292;2023-06-26T01:46:04;7.10;;;5.57;;
1799;SDS011;919;48.274;12.292;2023-06-26T01:48:40;7.10;;;6.30;;
1799;SDS011;919;48.274;12.292;2023-06-26T01:51:13;6.70;;;6.00;;
1799;SDS011;919;48.274;12.292;2023-06-26T01:53:43;9.00;;;6.00;;
1799;SDS011;919;48.274;12.292;2023-06-26T01:56:13;7.43;;;6.60;;
1799;SDS011;919;48.274;12.292;2023-06-26T01:58:45;6.47;;;5.73;;
1799;SDS011;919;48.274;12.292;2023-06-26T02:01:13;7.70;;;6.40;;
1799;SDS011;919;48.274;12.292;2023-06-26T02:03:40;7.97;;;6.40;;
1799;SDS011;919;48.274;12.292;2023-06-26T02:06:06;6.97;;;4.83;;
1799;SDS011;919;48.274;12.292;2023-06-26T02:08:33;4.97;;;4.50;;
1799;SDS011;919;48.274;12.292;2023-06-26T02:11:00;8.30;;;6.23;;
1799;SDS011;919;48.274;12.292;2023-06-26T02:13:27;8.33;;;5.57;;
1799;SDS011;919;48.274;12.292;2023-06-26T02:15:55;7.23;;;6.53;;
1799;SDS011;919;48.274;12.292;2023-06-26T02:18:22;8.00;;;5.03;;
1799;SDS011;919;48.274;12.292;2023-06-26T02:20:49;6.57;;;5.40;;
1799;SDS011;919;48.274;12.292;2023-06-26T02:23:16;7.37;;;5.80;;
1799;SDS011;919;48.274;12.292;2023-06-26T02:25:43;9.20;;;6.90;;
1799;SDS011;919;48.274;12.292;2023-06-26T02:28:10;7.60;;;6.00;;
1799;SDS011;919;48.274;12.292;2023-06-26T02:30:36;10.43;;;5.87;;
1799;SDS011;919;48.274;12.292;2023-06-26T02:33:04;9.03;;;6.13;;
1799;SDS011;919;48.274;12.292;2023-06-26T02:35:31;8.93;;;6.00;;
1799;SDS011;919;48.274;12.292;2023-06-26T02:37:59;6.30;;;5.30;;
1799;SDS011;919;48.274;12.292;2023-06-26T02:40:25;6.77;;;5.43;;
1799;SDS011;919;48.274;12.292;2023-06-26T02:42:55;8.57;;;6.20;;
1799;SDS011;919;48.274;12.292;2023-06-26T02:45:22;7.70;;;5.47;;
1799;SDS011;919;48.274;12.292;2023-06-26T02:47:48;8.70;;;5.63;;
1799;SDS011;919;48.274;12.292;2023-06-26T02:50:17;7.60;;;4.50;;
1799;SDS011;919;48.274;12.292;2023-06-26T02:52:43;5.47;;;4.97;;
1799;SDS011;919;48.274;12.292;2023-06-26T02:55:15;9.50;;;5.30;;
1799;SDS011;919;48.274;12.292;2023-06-26T02:57:42;6.40;;;5.27;;
1799;SDS011;919;48.274;12.292;2023-06-26T03:00:09;5.97;;;5.10;;
1799;SDS011;919;48.274;12.292;2023-06-26T03:02:37;7.33;;;5.13;;
1799;SDS011;919;48.274;12.292;2023-06-26T03:05:05;7.30;;;5.50;;
1799;SDS011;919;48.274;12.292;2023-06-26T03:07:36;10.40;;;5.20;;
1799;SDS011;919;48.274;12.292;2023-06-26T03:10:05;7.63;;;5.60;;
1799;SDS011;919;48.274;12.292;2023-06-26T03:12:34;7.43;;;6.10;;
1799;SDS011;919;48.274;12.292;2023-06-26T03:15:01;7.40;;;5.50;;
1799;SDS011;919;48.274;12.292;2023-06-26T03:17:30;7.27;;;6.57;;
1799;SDS011;919;48.274;12.292;2023-06-26T03:19:57;9.60;;;6.17;;
1799;SDS011;919;48.274;12.292;2023-06-26T03:22:26;6.20;;;5.33;;
1799;SDS011;919;48.274;12.292;2023-06-26T03:24:59;5.60;;;5.10;;
1799;SDS011;919;48.274;12.292;2023-06-26T03:27:26;5.87;;;5.27;;
1799;SDS011;919;48.274;12.292;2023-06-26T03:29:55;6.93;;;5.87;;
1799;SDS011;919;48.274;12.292;2023-06-26T03:32:23;7.30;;;6.50;;
1799;SDS011;919;48.274;12.292;2023-06-26T03:34:51;8.63;;;6.07;;
1799;SDS011;919;48.274;12.292;2023-06-26T03:37:19;8.30;;;5.90;;
1799;SDS011;919;48.274;12.292;2023-06-26T03:39:46;6.27;;;5.40;;
1799;SDS011;919;48.274;12.292;2023-06-26T03:42:14;8.00;;;6.27;;
1799;SDS011;919;48.274;12.292;2023-06-26T03:44:41;7.50;;;6.47;;
1799;SDS011;919;48.274;12.292;2023-06-26T03:47:07;6.80;;;6.10;;
1799;SDS011;919;48.274;12.292;2023-06-26T03:49:34;7.17;;;6.47;;
1799;SDS011;919;48.274;12.292;2023-06-26T03:52:01;5.97;;;5.47;;
1799;SDS011;919;48.274;12.292;2023-06-26T03:54:28;6.20;;;4.80;;
1799;SDS011;919;48.274;12.292;2023-06-26T03:56:54;6.97;;;5.80;;
1799;SDS011;919;48.274;12.292;2023-06-26T03:59:23;11.80;;;5.50;;
1799;SDS011;919;48.274;12.292;2023-06-26T04:01:50;7.03;;;6.33;;
1799;SDS011;919;48.274;12.292;2023-06-26T04:04:18;6.50;;;5.90;;
1799;SDS011;919;48.274;12.292;2023-06-26T04:06:45;9.33;;;5.87;;
1799;SDS011;919;48.274;12.292;2023-06-26T04:09:11;9.70;;;6.30;;
1799;SDS011;919;48.274;12.292;2023-06-26T04:11:38;7.07;;;6.33;;
1799;SDS011;919;48.274;12.292;2023-06-26T04:14:05;8.10;;;5.77;;
1799;SDS011;919;48.274;12.292;2023-06-26T04:16:34;6.47;;;5.80;;
1799;SDS011;919;48.274;12.292;2023-06-26T04:19:01;6.60;;;5.93;;
1799;SDS011;919;48.274;12.292;2023-06-26T04:21:30;10.40;;;6.30;;
1799;SDS011;919;48.274;12.292;2023-06-26T04:23:56;6.60;;;5.00;;
1799;SDS011;919;48.274;12.292;2023-06-26T04:26:23;7.53;;;5.47;;
1799;SDS011;919;48.274;12.292;2023-06-26T04:28:50;6.83;;;5.27;;
1799;SDS011;919;48.274;12.292;2023-06-26T04:31:18;6.57;;;5.70;;
1799;SDS011;919;48.274;12.292;2023-06-26T04:33:48;6.60;;;5.97;;
1799;SDS011;919;48.274;12.292;2023-06-26T04:36:16;7.80;;;6.27;;
1799;SDS011;919;48.274;12.292;2023-06-26T04:38:43;5.80;;;5.30;;
1799;SDS011;919;48.274;12.292;2023-06-26T04:41:11;6.03;;;5.53;;
1799;SDS011;919;48.274;12.292;2023-06-26T04:43:39;7.30;;;5.50;;
1799;SDS011;919;48.274;12.292;2023-06-26T04:46:07;6.90;;;6.20;;
1799;SDS011;919;48.274;12.292;2023-06-26T04:48:34;8.57;;;6.77;;
1799;SDS011;919;48.274;12.292;2023-06-26T04:51:03;8.90;;;6.97;;
1799;SDS011;919;48.274;12.292;2023-06-26T04:53:30;8.90;;;6.90;;
1799;SDS011;919;48.274;12.292;2023-06-26T04:55:57;7.40;;;6.63;;
1799;SDS011;919;48.274;12.292;2023-06-26T04:58:24;9.43;;;7.77;;
1799;SDS011;919;48.274;12.292;2023-06-26T05:00:50;8.20;;;7.20;;
1799;SDS011;919;48.274;12.292;2023-06-26T05:03:17;6.80;;;6.03;;
1799;SDS011;919;48.274;12.292;2023-06-26T05:05:44;7.27;;;6.50;;
1799;SDS011;919;48.274;12.292;2023-06-26T05:08:16;7.60;;;6.80;;
1799;SDS011;919;48.274;12.292;2023-06-26T05:10:43;5.93;;;5.43;;
1799;SDS011;919;48.274;12.292;2023-06-26T05:13:11;6.03;;;5.43;;
1799;SDS011;919;48.274;12.292;2023-06-26T05:15:40;12.63;;;7.10;;
1799;SDS011;919;48.274;12.292;2023-06-26T05:18:06;11.07;;;7.80;;
1799;SDS011;919;48.274;12.292;2023-06-26T05:20:33;8.60;;;7.67;;
1799;SDS011;919;48.274;12.292;2023-06-26T05:23:01;10.70;;;6.33;;
1799;SDS011;919;48.274;12.292;2023-06-26T05:25:29;7.53;;;6.83;;
1799;SDS011;919;48.274;12.292;2023-06-26T05:27:58;9.90;;;7.60;;
1799;SDS011;919;48.274;12.292;2023-06-26T05:30:26;10.40;;;7.90;;
1799;SDS011;919;48.274;12.292;2023-06-26T05:32:56;7.50;;;6.80;;
1799;SDS011;919;48.274;12.292;2023-06-26T05:35:25;6.20;;;5.60;;
1799;SDS011;919;48.274;12.292;2023-06-26T05:37:55;7.17;;;6.47;;
1799;SDS011;919;48.274;12.292;2023-06-26T05:40:23;7.20;;;6.50;;
1799;SDS011;919;48.274;12.292;2023-06-26T05:42:52;6.50;;;5.80;;
1799;SDS011;919;48.274;12.292;2023-06-26T05:45:19;7.83;;;7.13;;
1799;SDS011;919;48.274;12.292;2023-06-26T05:47:46;6.10;;;5.50;;
1799;SDS011;919;48.274;12.292;2023-06-26T05:50:15;8.30;;;7.13;;
1799;SDS011;919;48.274;12.292;2023-06-26T05:52:43;8.63;;;7.80;;
1799;SDS011;919;48.274;12.292;2023-06-26T05:55:11;8.23;;;7.40;;
1799;SDS011;919;48.274;12.292;2023-06-26T05:57:39;9.23;;;8.20;;
1799;SDS011;919;48.274;12.292;2023-06-26T06:00:09;7.87;;;7.17;;
1799;SDS011;919;48.274;12.292;2023-06-26T06:02:36;8.00;;;7.20;;
1799;SDS011;919;48.274;12.292;2023-06-26T06:05:03;7.60;;;6.80;;
1799;SDS011;919;48.274;12.292;2023-06-26T06:07:31;8.67;;;6.97;;
1799;SDS011;919;48.274;12.292;2023-06-26T06:09:58;6.53;;;5.90;;
1799;SDS011;919;48.274;12.292;2023-06-26T06:12:25;6.57;;;5.83;;
1799;SDS011;919;48.274;12.292;2023-06-26T06:14:52;7.87;;;7.07;;
1799;SDS011;919;48.274;12.292;2023-06-26T06:17:20;8.80;;;7.97;;
1799;SDS011;919;48.274;12.292;2023-06-26T06:19:49;8.37;;;6.27;;
1799;SDS011;919;48.274;12.292;2023-06-26T06:22:16;8.50;;;7.07;;
1799;SDS011;919;48.274;12.292;2023-06-26T06:24:42;9.10;;;6.47;;
1799;SDS011;919;48.274;12.292;2023-06-26T06:27:10;7.20;;;6.10;;
1799;SDS011;919;48.274;12.292;2023-06-26T06:29:36;8.10;;;6.87;;
1799;SDS011;919;48.274;12.292;2023-06-26T06:32:03;10.83;;;6.73;;
1799;SDS011;919;48.274;12.292;2023-06-26T06:34:32;8.47;;;7.43;;
1799;SDS011;919;48.274;12.292;2023-06-26T06:36:59;7.90;;;7.07;;
1799;SDS011;919;48.274;12.292;2023-06-26T06:39:26;8.23;;;7.00;;
1799;SDS011;919;48.274;12.292;2023-06-26T06:41:53;7.83;;;7.03;;
1799;SDS011;919;48.274;12.292;2023-06-26T06:44:20;6.40;;;5.80;;
1799;SDS011;919;48.274;12.292;2023-06-26T06:46:48;8.80;;;7.90;;
1799;SDS011;919;48.274;12.292;2023-06-26T06:49:15;8.60;;;7.80;;
1799;SDS011;919;48.274;12.292;2023-06-26T06:51:44;7.47;;;6.70;;
1799;SDS011;919;48.274;12.292;2023-06-26T06:54:12;8.40;;;7.60;;
1799;SDS011;919;48.274;12.292;2023-06-26T06:56:43;8.10;;;7.07;;
1799;SDS011;919;48.274;12.292;2023-06-26T06:59:10;10.60;;;8.73;;
1799;SDS011;919;48.274;12.292;2023-06-26T07:01:40;8.40;;;7.57;;
1799;SDS011;919;48.274;12.292;2023-06-26T07:04:07;10.03;;;9.03;;
1799;SDS011;919;48.274;12.292;2023-06-26T07:06:34;9.97;;;7.50;;
1799;SDS011;919;48.274;12.292;2023-06-26T07:09:03;8.13;;;7.17;;
1799;SDS011;919;48.274;12.292;2023-06-26T07:11:31;8.37;;;7.57;;
1799;SDS011;919;48.274;12.292;2023-06-26T07:13:59;7.90;;;7.10;;
1799;SDS011;919;48.274;12.292;2023-06-26T07:16:26;8.77;;;7.70;;
1799;SDS011;919;48.274;12.292;2023-06-26T07:18:54;8.20;;;7.40;;
1799;SDS011;919;48.274;12.292;2023-06-26T07:21:23;8.50;;;7.30;;
1799;SDS011;919;48.274;12.292;2023-06-26T07:23:52;8.07;;;7.23;;
1799;SDS011;919;48.274;12.292;2023-06-26T07:26:20;8.90;;;8.00;;
1799;SDS011;919;48.274;12.292;2023-06-26T07:28:51;8.27;;;7.50;;
1799;SDS011;919;48.274;12.292;2023-06-26T07:31:19;8.73;;;7.93;;
1799;SDS011;919;48.274;12.292;2023-06-26T07:33:46;9.00;;;8.10;;
1799;SDS011;919;48.274;12.292;2023-06-26T07:36:13;8.83;;;7.80;;
1799;SDS011;919;48.274;12.292;2023-06-26T07:38:40;8.73;;;7.93;;
1799;SDS011;919;48.274;12.292;2023-06-26T07:41:06;9.73;;;7.93;;
1799;SDS011;919;48.274;12.292;2023-06-26T07:43:34;8.60;;;7.73;;
1799;SDS011;919;48.274;12.292;2023-06-26T07:46:01;10.67;;;7.60;;
1799;SDS011;919;48.274;12.292;2023-06-26T07:48:28;8.00;;;7.20;;
1799;SDS011;919;48.274;12.292;2023-06-26T07:50:54;7.93;;;7.13;;
1799;SDS011;919;48.274;12.292;2023-06-26T07:53:21;6.80;;;6.20;;
1799;SDS011;919;48.274;12.292;2023-06-26T07:55:48;7.60;;;6.80;;
1799;SDS011;919;48.274;12.292;2023-06-26T07:58:15;6.70;;;6.00;;
1799;SDS011;919;48.274;12.292;2023-06-26T08:00:43;12.83;;;7.97;;
1799;SDS011;919;48.274;12.292;2023-06-26T08:03:10;8.57;;;7.67;;
1799;SDS011;919;48.274;12.292;2023-06-26T08:05:37;8.10;;;6.97;;
1799;SDS011;919;48.274;12.292;2023-06-26T08:08:04;8.90;;;6.50;;
1799;SDS011;919;48.274;12.292;2023-06-26T08:10:31;7.97;;;7.17;;
1799;SDS011;919;48.274;12.292;2023-06-26T08:12:59;7.63;;;6.97;;
1799;SDS011;919;48.274;12.292;2023-06-26T08:15:25;7.93;;;7.00;;
1799;SDS011;919;48.274;12.292;2023-06-26T08:17:54;8.43;;;6.73;;
1799;SDS011;919;48.274;12.292;2023-06-26T08:20:20;6.90;;;6.30;;
1799;SDS011;919;48.274;12.292;2023-06-26T08:22:47;8.03;;;7.27;;
1799;SDS011;919;48.274;12.292;2023-06-26T08:25:16;7.07;;;6.37;;
1799;SDS011;919;48.274;12.292;2023-06-26T08:27:43;8.80;;;6.80;;
1799;SDS011;919;48.274;12.292;2023-06-26T08:30:10;7.33;;;6.63;;
1799;SDS011;919;48.274;12.292;2023-06-26T08:32:37;7.20;;;6.50;;
1799;SDS011;919;48.274;12.292;2023-06-26T08:35:06;7.93;;;7.23;;
1799;SDS011;919;48.274;12.292;2023-06-26T08:37:35;7.10;;;6.40;;
1799;SDS011;919;48.274;12.292;2023-06-26T08:40:02;12.43;;;7.30;;
1799;SDS011;919;48.274;12.292;2023-06-26T08:42:29;6.67;;;6.07;;
1799;SDS011;919;48.274;12.292;2023-06-26T08:44:56;9.10;;;8.30;;
1799;SDS011;919;48.274;12.292;2023-06-26T08:47:23;10.70;;;7.10;;
1799;SDS011;919;48.274;12.292;2023-06-26T08:49:51;7.63;;;6.90;;
1799;SDS011;919;48.274;12.292;2023-06-26T08:52:23;8.20;;;7.50;;
1799;SDS011;919;48.274;12.292;2023-06-26T08:54:54;8.17;;;7.37;;
1799;SDS011;919;48.274;12.292;2023-06-26T08:57:25;9.50;;;8.10;;
1799;SDS011;919;48.274;12.292;2023-06-26T08:59:52;8.23;;;7.50;;
1799;SDS011;919;48.274;12.292;2023-06-26T09:02:20;8.53;;;7.63;;
1799;SDS011;919;48.274;12.292;2023-06-26T09:04:47;7.23;;;6.63;;
1799;SDS011;919;48.274;12.292;2023-06-26T09:07:14;8.03;;;7.33;;
1799;SDS011;919;48.274;12.292;2023-06-26T09:09:43;12.67;;;11.10;;
1799;SDS011;919;48.274;12.292;2023-06-26T09:12:09;8.80;;;7.00;;
1799;SDS011;919;48.274;12.292;2023-06-26T09:14:36;7.93;;;7.13;;
1799;SDS011;919;48.274;12.292;2023-06-26T09:17:03;9.60;;;8.63;;
1799;SDS011;919;48.274;12.292;2023-06-26T09:19:30;8.30;;;7.40;;
1799;SDS011;919;48.274;12.292;2023-06-26T09:21:57;7.80;;;6.80;;
1799;SDS011;919;48.274;12.292;2023-06-26T09:24:24;7.77;;;7.07;;
1799;SDS011;919;48.274;12.292;2023-06-26T09:26:52;8.03;;;7.33;;
1799;SDS011;919;48.274;12.292;2023-06-26T09:29:19;7.77;;;7.07;;
1799;SDS011;919;48.274;12.292;2023-06-26T09:31:46;7.87;;;7.17;;
1799;SDS011;919;48.274;12.292;2023-06-26T09:34:13;7.80;;;6.90;;
1799;SDS011;919;48.274;12.292;2023-06-26T09:36:40;8.23;;;7.43;;
1799;SDS011;919;48.274;12.292;2023-06-26T09:39:11;7.73;;;7.03;;
1799;SDS011;919;48.274;12.292;2023-06-26T09:41:41;7.97;;;7.27;;
1799;SDS011;919;48.274;12.292;2023-06-26T09:44:14;7.03;;;6.33;;
1799;SDS011;919;48.274;12.292;2023-06-26T09:46:44;8.03;;;7.23;;
1799;SDS011;919;48.274;12.292;2023-06-26T09:49:12;7.60;;;6.90;;
1799;SDS011;919;48.274;12.292;2023-06-26T09:51:41;8.17;;;7.37;;
1799;SDS011;919;48.274;12.292;2023-06-26T09:54:09;7.67;;;6.97;;
1799;SDS011;919;48.274;12.292;2023-06-26T09:56:38;7.00;;;6.30;;
1799;SDS011;919;48.274;12.292;2023-06-26T09:59:09;7.57;;;6.87;;
1799;SDS011;919;48.274;12.292;2023-06-26T10:01:39;7.67;;;6.97;;
1799;SDS011;919;48.274;12.292;2023-06-26T10:04:09;7.93;;;7.10;;
1799;SDS011;919;48.274;12.292;2023-06-26T10:06:38;7.77;;;6.77;;
1799;SDS011;919;48.274;12.292;2023-06-26T10:09:10;8.17;;;7.37;;
1799;SDS011;919;48.274;12.292;2023-06-26T10:11:41;7.47;;;6.87;;
1799;SDS011;919;48.274;12.292;2023-06-26T10:14:13;7.00;;;6.40;;
1799;SDS011;919;48.274;12.292;2023-06-26T10:16:42;9.13;;;8.23;;
1799;SDS011;919;48.274;12.292;2023-06-26T10:19:11;8.67;;;7.80;;
1799;SDS011;919;48.274;12.292;2023-06-26T10:21:39;8.50;;;7.70;;
1799;SDS011;919;48.274;12.292;2023-06-26T10:24:07;8.20;;;7.37;;
1799;SDS011;919;48.274;12.292;2023-06-26T10:26:38;8.93;;;7.50;;
1799;SDS011;919;48.274;12.292;2023-06-26T10:29:09;8.57;;;7.80;;
1799;SDS011;919;48.274;12.292;2023-06-26T10:31:37;8.27;;;7.57;;
1799;SDS011;919;48.274;12.292;2023-06-26T10:34:06;8.17;;;7.40;;
1799;SDS011;919;48.274;12.292;2023-06-26T10:36:34;7.90;;;7.20;;
1799;SDS011;919;48.274;12.292;2023-06-26T10:39:03;7.30;;;6.53;;
1799;SDS011;919;48.274;12.292;2023-06-26T10:41:35;6.80;;;6.20;;
1799;SDS011;919;48.274;12.292;2023-06-26T10:44:07;7.10;;;6.40;;
1799;SDS011;919;48.274;12.292;2023-06-26T10:46:48;6.63;;;5.80;;
1799;SDS011;919;48.274;12.292;2023-06-26T10:49:19;9.50;;;6.23;;
1799;SDS011;919;48.274;12.292;2023-06-26T10:51:47;6.23;;;5.73;;
1799;SDS011;919;48.274;12.292;2023-06-26T10:54:15;6.37;;;5.77;;
1799;SDS011;919;48.274;12.292;2023-06-26T10:56:44;6.70;;;6.17;;
1799;SDS011;919;48.274;12.292;2023-06-26T10:59:15;6.77;;;6.10;;
1799;SDS011;919;48.274;12.292;2023-06-26T11:01:44;7.50;;;6.90;;
1799;SDS011;919;48.274;12.292;2023-06-26T11:04:13;7.00;;;6.40;;
1799;SDS011;919;48.274;12.292;2023-06-26T11:06:44;6.70;;;6.10;;
1799;SDS011;919;48.274;12.292;2023-06-26T11:09:14;8.23;;;7.00;;
1799;SDS011;919;48.274;12.292;2023-06-26T11:11:59;6.53;;;5.93;;
1799;SDS011;919;48.274;12.292;2023-06-26T11:14:33;6.90;;;6.30;;
1799;SDS011;919;48.274;12.292;2023-06-26T11:17:04;6.10;;;5.50;;
1799;SDS011;919;48.274;12.292;2023-06-26T11:19:31;6.13;;;5.63;;
1799;SDS011;919;48.274;12.292;2023-06-26T11:22:01;6.60;;;6.00;;
1799;SDS011;919;48.274;12.292;2023-06-26T11:24:29;6.70;;;6.10;;
1799;SDS011;919;48.274;12.292;2023-06-26T11:26:59;6.93;;;5.80;;
1799;SDS011;919;48.274;12.292;2023-06-26T11:29:30;6.80;;;6.30;;
1799;SDS011;919;48.274;12.292;2023-06-26T11:31:58;6.50;;;5.90;;
1799;SDS011;919;48.274;12.292;2023-06-26T11:34:29;8.37;;;6.23;;
1799;SDS011;919;48.274;12.292;2023-06-26T11:36:57;6.37;;;5.87;;
1799;SDS011;919;48.274;12.292;2023-06-26T11:39:27;6.23;;;5.73;;
1799;SDS011;919;48.274;12.292;2023-06-26T11:41:55;6.00;;;5.30;;
1799;SDS011;919;48.274;12.292;2023-06-26T11:44:22;6.10;;;5.50;;
1799;SDS011;919;48.274;12.292;2023-06-26T11:46:51;5.47;;;4.97;;
1799;SDS011;919;48.274;12.292;2023-06-26T11:49:20;6.47;;;5.87;;
1799;SDS011;919;48.274;12.292;2023-06-26T11:51:51;6.57;;;6.07;;
1799;SDS011;919;48.274;12.292;2023-06-26T11:54:29;6.00;;;5.50;;
1799;SDS011;919;48.274;12.292;2023-06-26T11:56:57;6.70;;;6.10;;
1799;SDS011;919;48.274;12.292;2023-06-26T11:59:32;5.90;;;5.40;;
1799;SDS011;919;48.274;12.292;2023-06-26T12:02:00;6.43;;;5.50;;
1799;SDS011;919;48.274;12.292;2023-06-26T12:04:31;6.40;;;5.90;;
1799;SDS011;919;48.274;12.292;2023-06-26T12:06:59;5.50;;;5.00;;
1799;SDS011;919;48.274;12.292;2023-06-26T12:09:31;6.00;;;5.50;;
1799;SDS011;919;48.274;12.292;2023-06-26T12:11:59;6.20;;;5.70;;
1799;SDS011;919;48.274;12.292;2023-06-26T12:14:27;6.27;;;5.77;;
1799;SDS011;919;48.274;12.292;2023-06-26T12:16:55;6.00;;;5.50;;
1799;SDS011;919;48.274;12.292;2023-06-26T12:19:31;6.47;;;5.90;;
1799;SDS011;919;48.274;12.292;2023-06-26T12:21:58;6.20;;;5.70;;
1799;SDS011;919;48.274;12.292;2023-06-26T12:24:25;5.93;;;5.33;;
1799;SDS011;919;48.274;12.292;2023-06-26T12:26:54;6.63;;;6.03;;
1799;SDS011;919;48.274;12.292;2023-06-26T12:29:28;6.33;;;5.83;;
1799;SDS011;919;48.274;12.292;2023-06-26T12:31:59;6.57;;;5.97;;
1799;SDS011;919;48.274;12.292;2023-06-26T12:34:27;6.00;;;5.50;;
1799;SDS011;919;48.274;12.292;2023-06-26T12:36:59;8.90;;;8.20;;
1799;SDS011;919;48.274;12.292;2023-06-26T12:39:28;6.73;;;6.23;;
1799;SDS011;919;48.274;12.292;2023-06-26T12:41:57;7.00;;;6.40;;
1799;SDS011;919;48.274;12.292;2023-06-26T12:44:26;6.37;;;5.87;;
1799;SDS011;919;48.274;12.292;2023-06-26T12:46:57;6.80;;;6.20;;
1799;SDS011;919;48.274;12.292;2023-06-26T12:49:29;5.70;;;5.20;;
1799;SDS011;919;48.274;12.292;2023-06-26T12:51:57;6.70;;;6.10;;
1799;SDS011;919;48.274;12.292;2023-06-26T12:54:24;6.10;;;5.60;;
1799;SDS011;919;48.274;12.292;2023-06-26T12:56:51;6.00;;;5.40;;
1799;SDS011;919;48.274;12.292;2023-06-26T12:59:20;5.83;;;5.33;;
1799;SDS011;919;48.274;12.292;2023-06-26T13:01:47;6.53;;;6.03;;
1799;SDS011;919;48.274;12.292;2023-06-26T13:04:14;6.67;;;5.83;;
1799;SDS011;919;48.274;12.292;2023-06-26T13:06:41;10.03;;;6.23;;
1799;SDS011;919;48.274;12.292;2023-06-26T13:09:09;7.20;;;6.50;;
1799;SDS011;919;48.274;12.292;2023-06-26T13:11:37;6.03;;;5.53;;
1799;SDS011;919;48.274;12.292;2023-06-26T13:14:05;9.50;;;5.47;;
1799;SDS011;919;48.274;12.292;2023-06-26T13:16:34;5.93;;;5.33;;
1799;SDS011;919;48.274;12.292;2023-06-26T13:19:04;5.83;;;5.30;;
1799;SDS011;919;48.274;12.292;2023-06-26T13:21:31;6.67;;;6.07;;
1799;SDS011;919;48.274;12.292;2023-06-26T13:23:58;5.43;;;5.03;;
1799;SDS011;919;48.274;12.292;2023-06-26T13:26:26;5.50;;;5.10;;
1799;SDS011;919;48.274;12.292;2023-06-26T13:28:55;5.87;;;5.33;;
1799;SDS011;919;48.274;12.292;2023-06-26T13:31:22;6.33;;;5.83;;
1799;SDS011;919;48.274;12.292;2023-06-26T13:33:52;6.60;;;6.10;;
1799;SDS011;919;48.274;12.292;2023-06-26T13:36:20;5.67;;;5.27;;
1799;SDS011;919;48.274;12.292;2023-06-26T13:38:47;7.03;;;6.53;;
1799;SDS011;919;48.274;12.292;2023-06-26T13:41:21;7.10;;;6.60;;
1799;SDS011;919;48.274;12.292;2023-06-26T13:43:48;7.73;;;6.37;;
1799;SDS011;919;48.274;12.292;2023-06-26T13:46:15;5.63;;;5.23;;
1799;SDS011;919;48.274;12.292;2023-06-26T13:48:42;8.07;;;7.37;;
1799;SDS011;919;48.274;12.292;2023-06-26T13:51:11;7.23;;;6.37;;
1799;SDS011;919;48.274;12.292;2023-06-26T13:53:40;6.43;;;5.93;;
1799;SDS011;919;48.274;12.292;2023-06-26T13:56:07;6.43;;;5.93;;
1799;SDS011;919;48.274;12.292;2023-06-26T13:58:35;6.30;;;5.80;;
1799;SDS011;919;48.274;12.292;2023-06-26T14:01:03;6.43;;;5.93;;
1799;SDS011;919;48.274;12.292;2023-06-26T14:03:30;6.43;;;5.93;;
1799;SDS011;919;48.274;12.292;2023-06-26T14:05:57;6.50;;;5.87;;
1799;SDS011;919;48.274;12.292;2023-06-26T14:08:26;6.63;;;6.03;;
1799;SDS011;919;48.274;12.292;2023-06-26T14:10:53;6.57;;;6.07;;
1799;SDS011;919;48.274;12.292;2023-06-26T14:13:20;6.90;;;6.40;;
1799;SDS011;919;48.274;12.292;2023-06-26T14:15:47;6.77;;;6.27;;
1799;SDS011;919;48.274;12.292;2023-06-26T14:18:17;7.00;;;6.30;;
1799;SDS011;919;48.274;12.292;2023-06-26T14:20:45;6.40;;;5.80;;
1799;SDS011;919;48.274;12.292;2023-06-26T14:23:13;7.63;;;6.53;;
1799;SDS011;919;48.274;12.292;2023-06-26T14:25:42;7.23;;;6.63;;
1799;SDS011;919;48.274;12.292;2023-06-26T14:28:09;7.33;;;6.70;;
1799;SDS011;919;48.274;12.292;2023-06-26T14:30:36;6.80;;;6.13;;
1799;SDS011;919;48.274;12.292;2023-06-26T14:33:04;7.17;;;6.57;;
1799;SDS011;919;48.274;12.292;2023-06-26T14:35:32;10.07;;;6.93;;
1799;SDS011;919;48.274;12.292;2023-06-26T14:38:01;6.63;;;6.13;;
1799;SDS011;919;48.274;12.292;2023-06-26T14:40:28;6.77;;;6.07;;
1799;SDS011;919;48.274;12.292;2023-06-26T14:42:58;6.43;;;5.83;;
1799;SDS011;919;48.274;12.292;2023-06-26T14:45:25;7.37;;;6.67;;
1799;SDS011;919;48.274;12.292;2023-06-26T14:47:52;7.90;;;6.20;;
1799;SDS011;919;48.274;12.292;2023-06-26T14:50:20;7.57;;;6.97;;
1799;SDS011;919;48.274;12.292;2023-06-26T14:52:48;7.73;;;7.00;;
1799;SDS011;919;48.274;12.292;2023-06-26T14:55:15;7.70;;;6.70;;
1799;SDS011;919;48.274;12.292;2023-06-26T14:57:42;6.30;;;5.73;;
1799;SDS011;919;48.274;12.292;2023-06-26T15:00:12;7.47;;;6.80;;
1799;SDS011;919;48.274;12.292;2023-06-26T15:02:39;6.67;;;6.07;;
1799;SDS011;919;48.274;12.292;2023-06-26T15:05:07;6.20;;;5.70;;
1799;SDS011;919;48.274;12.292;2023-06-26T15:07:35;7.40;;;6.67;;
1799;SDS011;919;48.274;12.292;2023-06-26T15:10:02;6.03;;;5.43;;
1799;SDS011;919;48.274;12.292;2023-06-26T15:12:43;6.40;;;5.80;;
1799;SDS011;919;48.274;12.292;2023-06-26T15:15:12;6.37;;;5.87;;
1799;SDS011;919;48.274;12.292;2023-06-26T15:17:40;8.60;;;6.30;;
1799;SDS011;919;48.274;12.292;2023-06-26T15:20:07;7.10;;;5.63;;
1799;SDS011;919;48.274;12.292;2023-06-26T15:22:35;5.90;;;5.40;;